Dean International
Flight School

Career Spotlight

Mika

Mika

Congratulations to Mika from Khazakstan. She recently sent us this photo of her flying an Airbus airliner.

More...
Mika's Success Story
close

Congratulations to Mika from Khazakstan. She recently sent us this photo of her flying an Airbus airliner.

Mario

Mario

My dreams could not have been realized if I wouldn't have been part of the Dean International family.

More...
Mario's Success Story
close

"My dreams could not have been realized if I wouldn't have been part of the Dean International family. Thank you Robert, thanks to all my co-workers, and thanks to all of my students!"

Fernando

Fernando

I am now working as a First Officer at TACA and am enjoying every moment of it.

More...
Fernando's Success Story
close

"Will never forget my time of flight training at Dean International. I am now working as a First Officer at TACA and am enjoying every moment of it."

Alvaro

Alvaro

Because of the flight time I was able to built while instructing, I got the experience needed to apply to an airline in Colombia.

More...
Alvaro's Success Story
close

Dean alumnus Alvaro Londoño currently flies with Tampa Cargo. He says of his experience at Dean: "I want to take this opportunity to thank you for giving me the chance to build my experience and expand my knowledge in Dean International. Because of the flight time I was able to built flight instructing, I got the experience needed to apply to an airline in Colombia."

Ralph

Ralph

Every Aruban student of Dean International has made it into Tiara Air Aruba, that is very nice.

More...
Ralph's Success Story
close

"Next to me is my Co-Pilot, Elison. This picture was taken on our first flight together, which was almost exactly 5 years after I finished at Dean International. [...] Every Aruban student of Dean International has made it into Tiara Air Aruba. [...] The future looks bright here in Aruba."

Rohaan

Rohaan

The [..] staff will all work diligently to help you finish your certificates as safely and efficiently as possible.

More...
Rohaan's Success Story
close

After receiving very hard times from other flight schools [...], I came to Dean International where Robert Dean personally sat down with me and gave me a financial and chronological look into how much remained to finish my private pilot certificate. Through his hard efforts as an instructor and mentor, I was able to finish my private pilot certificate within one week.

Welcome to Dean International

In over two decades, Dean International has educated over 7,000 pilots from all over the world, including over 1,000 students from India alone. By offering a great training experience, a friendly service staff, an ample variety of aircraft, and by improving constantly, we have become one of the largest, most prestigious FAA 141-approved flight schools in North America. Located in Miami, Florida, USA, our flight school offers an ideal location for year-round, "learn to fly" weather, flight training. Dean International is not only well-equipped to provide services to professional trainees but also caters to General Aviation renters. Visit or contact our headquarters at Kendall-Tamiami Executive Airport located in Miami, FL today to learn more about us, or simply read more about our programs if you are an international student interested in joining our school.

Local Airport Information
TAF FOR KTMB (Issued: Fri, April 18th 2014 9:03 AM UTC)
TAF
      AMD KTMB 180902Z 1809/1906 12005KT P6SM VCSH SCT020 SCT060
      FM181500 13014G20KT P6SM VCSH SCT025 BKN050
      FM190300 15010KT P6SM VCTS SCT025CB BKN040
     
METAR FOR KTMB (Issued: Fri, April 18th 2014 10:53 AM UTC):
KTMB 181053Z 12008KT 10SM FEW023 25/21 A3002 RMK AO2 SLP166 T02500211

This weather information is provided by the National Weather Service.
It is automatically refreshed every three minutes.
TAF FOR KHST (Issued: Fri, April 18th 2014 8:08 AM UTC)
TAF KHST 1808/1914 07009KT 9999 SCT020 BKN100 QNH3000INS
      BECMG 1815/1816 13015G20KT 9999 SCT020 BKN100 QNH2997INS
      BECMG 1823/1824 14012KT 8000 -SHRA SCT020 BKN050 QNH2995INS
      TEMPO 1902/1904 13015G20KT 6000 -TSRA OVC020CB
      BECMG 1907/1908 14012KT 9999 NSW SCT020 OVC050 QNH2990INS TX29/1821Z TN20/1810Z
     
METAR FOR KHST (Issued: Fri, April 18th 2014 9:58 AM UTC):
KHST 180958Z AUTO 11008G16KT 10SM CLR 25/20 A3000 RMK AO2 SLP162 T02470199 $

This weather information is provided by the National Weather Service.
It is automatically refreshed every three minutes.
TAF FOR KOPF (Issued: Fri, April 18th 2014 9:03 AM UTC)
TAF
      AMD KOPF 180902Z 1809/1906 11007KT P6SM VCSH SCT030 BKN060
      FM181400 13014G20KT P6SM VCSH SCT025 BKN050
      FM190300 15010KT P6SM VCTS SCT025CB BKN040
     
METAR FOR KOPF (Issued: Fri, April 18th 2014 10:53 AM UTC):
KOPF 181053Z 11008KT 10SM CLR 23/21 A3003 RMK AO2 SLP168 T02330206

This weather information is provided by the National Weather Service.
It is automatically refreshed every three minutes.
TAF FOR KMIA (Issued: Fri, April 18th 2014 9:06 AM UTC)
TAF
      AMD KMIA 180902Z 1809/1906 11007KT P6SM VCSH FEW025 SCT060
      FM181500 13014G20KT P6SM VCSH SCT025 BKN050
      FM190300 15010KT P6SM VCTS SCT025CB BKN040
     
METAR FOR KMIA (Issued: Fri, April 18th 2014 10:53 AM UTC):
KMIA 181053Z 12012KT 10SM CLR 24/21 A3003 RMK AO2 SLP167 T02440206

This weather information is provided by the National Weather Service.
It is automatically refreshed every three minutes.
Design by Ariel Llizo
© Dean International Inc. 2012